Varmdo — SMXZ — position and weather

sailwx.info

Track history (hours):
 
Tides and Currents Weather Stations Pressure Air Temp Water Temp Dewpoint Dewpoint Depression Visibility Wind Speed Wind Dir Waves Ship Positions

Varmdo

Last reported at 2016-May-30 13:27 UTC. Time now 2016-May-31 02:04 UTC.
Position N 59°20' E 018°12'.

Length 38 m; draft 2.5 m.

Type: Passenger vessel. MMSI: 265520390.

Date/timePositionNaut miles runAvg speedWind from/ knotsBaromVisibWave heightAir tempDewpointWater temp
2016-May-30 13:27N 59°20' E 018°12'4 3.7
2016-May-30 12:22N 59°20' E 018°05'0 0.0
2016-May-30 11:28N 59°20' E 018°05'0 0.0
2016-May-30 10:28N 59°20' E 018°05'0 0.0
2016-May-30 09:28N 59°20' E 018°05'0 0.0
2016-May-30 08:28N 59°20' E 018°05'0 0.0
2016-May-30 07:28N 59°20' E 018°05'0 0.0
2016-May-30 06:28N 59°20' E 018°05'0 0.0
2016-May-30 05:28N 59°20' E 018°05'0 0.0
2016-May-30 04:28N 59°20' E 018°05'0 0.0
2016-May-30 03:28N 59°20' E 018°05'0 0.0
2016-May-30 02:28N 59°20' E 018°05'0 0.0
2016-May-30 01:28N 59°20' E 018°05'0 0.0
2016-May-30 00:22N 59°20' E 018°05'0 0.0
2016-May-29 23:10N 59°20' E 018°05'0 0.0
2016-May-29 22:28N 59°20' E 018°05'0 0.0
2016-May-29 21:28N 59°20' E 018°05'0 0.0
2016-May-29 20:28N 59°20' E 018°05'0 0.0
2016-May-29 19:28N 59°20' E 018°05'1 0.8
2016-May-29 18:33N 59°19' E 018°06'8 2.0
2016-May-29 14:27N 59°23' E 018°20'9 8.9
2016-May-29 13:29N 59°20' E 018°05'7 7.8
2016-May-29 12:34N 59°23' E 018°17'1 0.2
2016-May-29 07:20N 59°23' E 018°20'810.9
2016-May-29 06:33N 59°19' E 018°05'0 0.4
2016-May-29 05:32N 59°20' E 018°04'0 0.0
2016-May-29 04:32N 59°20' E 018°04'0 0.0
2016-May-29 01:14N 59°20' E 018°04'0 0.0
2016-May-29 00:26N 59°20' E 018°04'0 0.0
2016-May-28 23:32N 59°20' E 018°04'0 0.0
2016-May-28 22:20N 59°20' E 018°04'0 0.0
2016-May-28 21:32N 59°20' E 018°04'0 0.0
2016-May-28 20:32N 59°20' E 018°04'0 0.0
2016-May-28 15:23N 59°20' E 018°04'0 0.5
2016-May-28 14:33N 59°19' E 018°05'9 1.2
2016-May-28 07:18N 59°23' E 018°20'811.5
2016-May-28 06:34N 59°19' E 018°05'0 0.4
2016-May-28 05:33N 59°20' E 018°05'0 0.0
2016-May-28 04:33N 59°20' E 018°05'0 0.0
2016-May-28 03:33N 59°20' E 018°05'0 0.0
2016-May-28 02:33N 59°20' E 018°05'0 0.0
2016-May-28 01:33N 59°20' E 018°05'0 0.0
2016-May-28 00:33N 59°20' E 018°05'0 0.0
2016-May-27 23:33N 59°20' E 018°05'0 0.0
2016-May-27 22:27N 59°20' E 018°05'4 4.0
2016-May-27 21:34N 59°20' E 018°11'0 0.0
2016-May-27 15:23N 59°20' E 018°12'4 4.4
2016-May-27 14:33N 59°20' E 018°04'0 0.0
2016-May-27 13:33N 59°20' E 018°04'0 0.0
2016-May-27 12:34N 59°20' E 018°04'8 6.5
2016-May-27 11:24N 59°22' E 018°18'4 1.3
2016-May-27 08:25N 59°20' E 018°12'4 4.5
2016-May-27 07:31N 59°20' E 018°05'0 0.0
2016-May-27 06:33N 59°20' E 018°05'0 0.0
2016-May-27 05:30N 59°20' E 018°05'0 0.0
2016-May-27 04:33N 59°20' E 018°05'0 0.0
2016-May-27 03:33N 59°20' E 018°05'0 0.0
2016-May-27 02:33N 59°20' E 018°05'0 0.0
2016-May-27 01:33N 59°20' E 018°05'0 0.0
2016-May-27 00:33N 59°20' E 018°05'0 0.0
2016-May-26 23:33N 59°20' E 018°05'0 0.0
2016-May-26 22:33N 59°20' E 018°05'0 0.0
2016-May-26 21:30N 59°20' E 018°05'0 0.0
2016-May-26 20:30N 59°20' E 018°05'0 0.0
2016-May-26 19:33N 59°20' E 018°05'0 0.0
2016-May-26 18:33N 59°20' E 018°05'0 0.0
2016-May-26 16:21N 59°20' E 018°05'0 0.0
2016-May-26 15:33N 59°20' E 018°05'0 0.0
2016-May-26 14:33N 59°20' E 018°05'0 0.0
2016-May-26 13:33N 59°20' E 018°05'0 0.0
2016-May-26 12:33N 59°20' E 018°05'0 0.0
2016-May-26 11:33N 59°20' E 018°05'0 0.0
2016-May-26 10:33N 59°20' E 018°05'0 0.0
2016-May-26 09:27N 59°20' E 018°05'0 0.0
2016-May-26 08:33N 59°20' E 018°05'0 0.0
2016-May-26 07:33N 59°20' E 018°05'0 0.0
2016-May-26 06:33N 59°20' E 018°05'3 3.1
2016-May-26 05:33N 59°19' E 018°11'6 0.4
2016-May-25 16:27N 59°23' E 018°20'8 9.3
2016-May-25 15:32N 59°19' E 018°05'0 0.2
2016-May-25 14:28N 59°20' E 018°05'0 0.0
2016-May-25 13:31N 59°20' E 018°05'0 0.0
2016-May-25 12:28N 59°20' E 018°05'0 0.0
2016-May-25 11:31N 59°20' E 018°05'0 0.0
2016-May-25 10:31N 59°20' E 018°05'0 0.0
2016-May-25 09:28N 59°20' E 018°05'0 0.0
2016-May-25 08:31N 59°20' E 018°05'6 6.0
2016-May-25 07:26N 59°22' E 018°17'3 0.1
2016-May-23 13:27N 59°20' E 018°12'4 4.3
2016-May-23 12:31N 59°20' E 018°05'0 0.0
2016-May-23 11:31N 59°20' E 018°05'0 0.0
2016-May-23 10:31N 59°20' E 018°05'0 0.0
2016-May-23 09:31N 59°20' E 018°05'0 0.0
2016-May-23 08:31N 59°20' E 018°05'0 0.0
2016-May-23 07:31N 59°20' E 018°05'0 0.0
2016-May-23 06:31N 59°20' E 018°05'0 0.0
2016-May-23 05:31N 59°20' E 018°05'0 0.0
2016-May-23 04:31N 59°20' E 018°05'0 0.0
2016-May-23 03:31N 59°20' E 018°05'0 0.0
2016-May-23 02:31N 59°20' E 018°05'0 0.0
2016-May-23 01:31N 59°20' E 018°05'0 0.0
2016-May-23 00:31N 59°20' E 018°05'0 0.0
2016-May-22 23:31N 59°20' E 018°05'0 0.0
2016-May-22 22:31N 59°20' E 018°05'0 0.0
2016-May-22 21:31N 59°20' E 018°05'0 0.0
2016-May-22 20:31N 59°20' E 018°05'0 0.0
2016-May-22 19:31N 59°20' E 018°05'2 1.6
2016-May-22 18:32N 59°19' E 018°07'7 1.8
2016-May-22 14:22N 59°23' E 018°20'810.1
2016-May-22 13:32N 59°20' E 018°05'7 7.5
2016-May-22 12:34N 59°23' E 018°18'1 0.2
2016-May-22 07:15N 59°23' E 018°20'812.2
2016-May-22 06:34N 59°19' E 018°05'0 0.4
2016-May-22 05:29N 59°20' E 018°04'0 0.0
2016-May-22 04:32N 59°20' E 018°04'0 0.0
2016-May-22 03:32N 59°20' E 018°04'0 0.0
2016-May-22 02:32N 59°20' E 018°04'0 0.0
2016-May-22 01:32N 59°20' E 018°04'0 0.0
2016-May-22 00:32N 59°20' E 018°04'0 0.0
2016-May-21 23:32N 59°20' E 018°04'0 0.0
2016-May-21 22:32N 59°20' E 018°04'0 0.0
2016-May-21 21:32N 59°20' E 018°04'0 0.0
2016-May-21 20:32N 59°20' E 018°04'0 0.0
2016-May-21 19:32N 59°20' E 018°04'0 0.0
2016-May-21 18:32N 59°20' E 018°04'0 0.0
2016-May-21 17:32N 59°20' E 018°04'0 0.0
2016-May-21 16:32N 59°20' E 018°04'0 0.0
2016-May-21 15:32N 59°20' E 018°04'0 0.4
2016-May-21 14:31N 59°19' E 018°05'0 0.0
2016-May-21 06:33N 59°19' E 018°05'0 0.5
2016-May-21 05:31N 59°20' E 018°05'0 0.0
2016-May-21 04:31N 59°20' E 018°05'0 0.0
2016-May-21 03:31N 59°20' E 018°05'0 0.0
2016-May-21 02:31N 59°20' E 018°05'0 0.0
2016-May-21 01:28N 59°20' E 018°05'0 0.0
2016-May-21 00:31N 59°20' E 018°05'0 0.0
2016-May-20 23:31N 59°20' E 018°05'0 0.0
2016-May-20 22:31N 59°20' E 018°05'3 2.8
2016-May-20 21:33N 59°19' E 018°10'2 0.4
2016-May-20 15:26N 59°21' E 018°13'5 5.2
2016-May-20 14:32N 59°20' E 018°05'0 0.0
2016-May-20 13:32N 59°20' E 018°05'  
Track history (hours):
 
Tides and Currents Weather Stations Pressure Air Temp Water Temp Dewpoint Dewpoint Depression Visibility Wind Speed Wind Dir Waves Ship Positions

Varmdo

Last reported at 2016-May-30 13:27 UTC. Time now 2016-May-31 02:04 UTC.
Position N 59°20' E 018°12'.

Length 38 m; draft 2.5 m.

Type: Passenger vessel. MMSI: 265520390.

Date/timePositionNaut miles runAvg speedWind from/ knotsBaromVisibWave heightAir tempDewpointWater temp
2016-May-30 13:27N 59°20' E 018°12'4 3.7
2016-May-30 12:22N 59°20' E 018°05'0 0.0
2016-May-30 11:28N 59°20' E 018°05'0 0.0
2016-May-30 10:28N 59°20' E 018°05'0 0.0
2016-May-30 09:28N 59°20' E 018°05'0 0.0
2016-May-30 08:28N 59°20' E 018°05'0 0.0
2016-May-30 07:28N 59°20' E 018°05'0 0.0
2016-May-30 06:28N 59°20' E 018°05'0 0.0
2016-May-30 05:28N 59°20' E 018°05'0 0.0
2016-May-30 04:28N 59°20' E 018°05'0 0.0
2016-May-30 03:28N 59°20' E 018°05'0 0.0
2016-May-30 02:28N 59°20' E 018°05'0 0.0
2016-May-30 01:28N 59°20' E 018°05'0 0.0
2016-May-30 00:22N 59°20' E 018°05'0 0.0
2016-May-29 23:10N 59°20' E 018°05'0 0.0
2016-May-29 22:28N 59°20' E 018°05'0 0.0
2016-May-29 21:28N 59°20' E 018°05'0 0.0
2016-May-29 20:28N 59°20' E 018°05'0 0.0
2016-May-29 19:28N 59°20' E 018°05'1 0.8
2016-May-29 18:33N 59°19' E 018°06'8 2.0
2016-May-29 14:27N 59°23' E 018°20'9 8.9
2016-May-29 13:29N 59°20' E 018°05'7 7.8
2016-May-29 12:34N 59°23' E 018°17'1 0.2
2016-May-29 07:20N 59°23' E 018°20'810.9
2016-May-29 06:33N 59°19' E 018°05'0 0.4
2016-May-29 05:32N 59°20' E 018°04'0 0.0
2016-May-29 04:32N 59°20' E 018°04'0 0.0
2016-May-29 01:14N 59°20' E 018°04'0 0.0
2016-May-29 00:26N 59°20' E 018°04'0 0.0
2016-May-28 23:32N 59°20' E 018°04'0 0.0
2016-May-28 22:20N 59°20' E 018°04'0 0.0
2016-May-28 21:32N 59°20' E 018°04'0 0.0
2016-May-28 20:32N 59°20' E 018°04'0 0.0
2016-May-28 15:23N 59°20' E 018°04'0 0.5
2016-May-28 14:33N 59°19' E 018°05'9 1.2
2016-May-28 07:18N 59°23' E 018°20'811.5
2016-May-28 06:34N 59°19' E 018°05'0 0.4
2016-May-28 05:33N 59°20' E 018°05'0 0.0
2016-May-28 04:33N 59°20' E 018°05'0 0.0
2016-May-28 03:33N 59°20' E 018°05'0 0.0
2016-May-28 02:33N 59°20' E 018°05'0 0.0
2016-May-28 01:33N 59°20' E 018°05'0 0.0
2016-May-28 00:33N 59°20' E 018°05'0 0.0
2016-May-27 23:33N 59°20' E 018°05'0 0.0
2016-May-27 22:27N 59°20' E 018°05'4 4.0
2016-May-27 21:34N 59°20' E 018°11'0 0.0
2016-May-27 15:23N 59°20' E 018°12'4 4.4
2016-May-27 14:33N 59°20' E 018°04'0 0.0
2016-May-27 13:33N 59°20' E 018°04'0 0.0
2016-May-27 12:34N 59°20' E 018°04'8 6.5
2016-May-27 11:24N 59°22' E 018°18'4 1.3
2016-May-27 08:25N 59°20' E 018°12'4 4.5
2016-May-27 07:31N 59°20' E 018°05'0 0.0
2016-May-27 06:33N 59°20' E 018°05'0 0.0
2016-May-27 05:30N 59°20' E 018°05'0 0.0
2016-May-27 04:33N 59°20' E 018°05'0 0.0
2016-May-27 03:33N 59°20' E 018°05'0 0.0
2016-May-27 02:33N 59°20' E 018°05'0 0.0
2016-May-27 01:33N 59°20' E 018°05'0 0.0
2016-May-27 00:33N 59°20' E 018°05'0 0.0
2016-May-26 23:33N 59°20' E 018°05'0 0.0
2016-May-26 22:33N 59°20' E 018°05'0 0.0
2016-May-26 21:30N 59°20' E 018°05'0 0.0
2016-May-26 20:30N 59°20' E 018°05'0 0.0
2016-May-26 19:33N 59°20' E 018°05'0 0.0
2016-May-26 18:33N 59°20' E 018°05'0 0.0
2016-May-26 16:21N 59°20' E 018°05'0 0.0
2016-May-26 15:33N 59°20' E 018°05'0 0.0
2016-May-26 14:33N 59°20' E 018°05'0 0.0
2016-May-26 13:33N 59°20' E 018°05'0 0.0
2016-May-26 12:33N 59°20' E 018°05'0 0.0
2016-May-26 11:33N 59°20' E 018°05'0 0.0
2016-May-26 10:33N 59°20' E 018°05'0 0.0
2016-May-26 09:27N 59°20' E 018°05'0 0.0
2016-May-26 08:33N 59°20' E 018°05'0 0.0
2016-May-26 07:33N 59°20' E 018°05'0 0.0
2016-May-26 06:33N 59°20' E 018°05'3 3.1
2016-May-26 05:33N 59°19' E 018°11'6 0.4
2016-May-25 16:27N 59°23' E 018°20'8 9.3
2016-May-25 15:32N 59°19' E 018°05'0 0.2
2016-May-25 14:28N 59°20' E 018°05'0 0.0
2016-May-25 13:31N 59°20' E 018°05'0 0.0
2016-May-25 12:28N 59°20' E 018°05'0 0.0
2016-May-25 11:31N 59°20' E 018°05'0 0.0
2016-May-25 10:31N 59°20' E 018°05'0 0.0
2016-May-25 09:28N 59°20' E 018°05'0 0.0
2016-May-25 08:31N 59°20' E 018°05'6 6.0
2016-May-25 07:26N 59°22' E 018°17'3 0.1
2016-May-23 13:27N 59°20' E 018°12'4 4.3
2016-May-23 12:31N 59°20' E 018°05'0 0.0
2016-May-23 11:31N 59°20' E 018°05'0 0.0
2016-May-23 10:31N 59°20' E 018°05'0 0.0
2016-May-23 09:31N 59°20' E 018°05'0 0.0
2016-May-23 08:31N 59°20' E 018°05'0 0.0
2016-May-23 07:31N 59°20' E 018°05'0 0.0
2016-May-23 06:31N 59°20' E 018°05'0 0.0
2016-May-23 05:31N 59°20' E 018°05'0 0.0
2016-May-23 04:31N 59°20' E 018°05'0 0.0
2016-May-23 03:31N 59°20' E 018°05'0 0.0
2016-May-23 02:31N 59°20' E 018°05'0 0.0
2016-May-23 01:31N 59°20' E 018°05'0 0.0
2016-May-23 00:31N 59°20' E 018°05'0 0.0
2016-May-22 23:31N 59°20' E 018°05'0 0.0
2016-May-22 22:31N 59°20' E 018°05'0 0.0
2016-May-22 21:31N 59°20' E 018°05'0 0.0
2016-May-22 20:31N 59°20' E 018°05'0 0.0
2016-May-22 19:31N 59°20' E 018°05'2 1.6
2016-May-22 18:32N 59°19' E 018°07'7 1.8
2016-May-22 14:22N 59°23' E 018°20'810.1
2016-May-22 13:32N 59°20' E 018°05'7 7.5
2016-May-22 12:34N 59°23' E 018°18'1 0.2
2016-May-22 07:15N 59°23' E 018°20'812.2
2016-May-22 06:34N 59°19' E 018°05'0 0.4
2016-May-22 05:29N 59°20' E 018°04'0 0.0
2016-May-22 04:32N 59°20' E 018°04'0 0.0
2016-May-22 03:32N 59°20' E 018°04'0 0.0
2016-May-22 02:32N 59°20' E 018°04'0 0.0
2016-May-22 01:32N 59°20' E 018°04'0 0.0
2016-May-22 00:32N 59°20' E 018°04'0 0.0
2016-May-21 23:32N 59°20' E 018°04'0 0.0
2016-May-21 22:32N 59°20' E 018°04'0 0.0
2016-May-21 21:32N 59°20' E 018°04'0 0.0
2016-May-21 20:32N 59°20' E 018°04'0 0.0
2016-May-21 19:32N 59°20' E 018°04'0 0.0
2016-May-21 18:32N 59°20' E 018°04'0 0.0
2016-May-21 17:32N 59°20' E 018°04'0 0.0
2016-May-21 16:32N 59°20' E 018°04'0 0.0
2016-May-21 15:32N 59°20' E 018°04'0 0.4
2016-May-21 14:31N 59°19' E 018°05'0 0.0
2016-May-21 06:33N 59°19' E 018°05'0 0.5
2016-May-21 05:31N 59°20' E 018°05'0 0.0
2016-May-21 04:31N 59°20' E 018°05'0 0.0
2016-May-21 03:31N 59°20' E 018°05'0 0.0
2016-May-21 02:31N 59°20' E 018°05'0 0.0
2016-May-21 01:28N 59°20' E 018°05'0 0.0
2016-May-21 00:31N 59°20' E 018°05'0 0.0
2016-May-20 23:31N 59°20' E 018°05'0 0.0
2016-May-20 22:31N 59°20' E 018°05'3 2.8
2016-May-20 21:33N 59°19' E 018°10'2 0.4
2016-May-20 15:26N 59°21' E 018°13'5 5.2
2016-May-20 14:32N 59°20' E 018°05'0 0.0
2016-May-20 13:32N 59°20' E 018°05'  

Dump ship's entire track history